Time;durP1;ratioP1;P1;durP2;ratioP2;P2;SDS_P1;SDS_P2;PMS_P1;PMS_P2;Temp;Humidity;BMP_temperature;BMP_pressure;BME280_temperature;BME280_humidity;BME280_pressure;Samples;Min_cycle;Max_cycle;Signal;HPM_P1;HPM_P2
2023/03/14 00:01:13;;;;;;;1.27;1.10;;;10.20;99.90;;;13.32;63.22;95929.41;5031003;28;20364;-48
2023/03/14 00:03:41;;;;;;;0.97;0.80;;;10.20;99.90;;;13.30;63.06;95936.84;5006465;28;20045;-48
2023/03/14 00:06:10;;;;;;;1.40;1.30;;;10.20;99.90;;;13.30;63.13;95946.69;5031122;28;20054;-53
2023/03/14 00:08:38;;;;;;;1.53;1.10;;;10.20;99.90;;;13.25;62.95;95951.88;5023542;28;20049;-47
2023/03/14 00:11:21;;;;;;;3.83;2.30;;;10.20;99.90;;;13.27;63.23;95961.28;5030860;28;20038;-49
2023/03/14 00:13:51;;;;;;;2.30;1.10;;;10.20;99.90;;;13.31;62.75;95961.69;5024514;28;20500;-46
2023/03/14 00:16:20;;;;;;;1.87;1.17;;;10.20;99.90;;;13.22;63.09;95947.75;5031908;28;20060;-49
2023/03/14 00:18:48;;;;;;;1.67;1.10;;;10.20;99.90;;;13.22;63.30;95953.09;5034829;28;20390;-48
2023/03/14 00:21:16;;;;;;;1.00;0.73;;;10.20;99.90;;;13.21;63.14;95954.16;5034643;28;20413;-48
2023/03/14 00:23:44;;;;;;;1.57;1.03;;;10.20;99.90;;;13.26;62.86;95958.81;5033406;28;20500;-45
2023/03/14 00:26:15;;;;;;;1.67;0.90;;;10.20;99.90;;;13.24;63.12;95951.06;5034793;28;20060;-47
2023/03/14 00:28:44;;;;;;;3.30;1.00;;;10.20;99.90;;;13.29;62.93;95955.72;5027310;28;20046;-49
2023/03/14 00:31:15;;;;;;;2.00;1.00;;;10.20;99.90;;;13.29;62.89;95951.19;5024712;28;20046;-48
2023/03/14 00:33:44;;;;;;;1.77;1.00;;;10.20;99.90;;;13.31;62.52;95959.84;5027206;28;20045;-45
2023/03/14 00:36:15;;;;;;;1.33;0.93;;;10.20;99.90;;;13.27;62.77;95955.13;5034524;28;20041;-49
2023/03/14 00:38:45;;;;;;;2.33;1.80;;;10.20;99.90;;;13.24;62.78;95958.22;5032965;28;20408;-47
2023/03/14 00:41:22;;;;;;;1.20;1.00;;;10.20;99.90;;;13.29;62.79;95951.19;5016455;28;20065;-48
2023/03/14 00:43:50;;;;;;;1.47;1.00;;;10.20;99.90;;;13.27;62.75;95947.13;5026140;28;20049;-50
2023/03/14 00:46:20;;;;;;;2.10;1.10;;;10.20;99.90;;;13.28;62.57;95952.25;5032338;28;20052;-49
2023/03/14 00:48:48;;;;;;;0.63;0.63;;;10.20;99.90;;;13.26;62.70;95950.81;5032862;28;20049;-49
2023/03/14 00:51:15;;;;;;;1.70;1.07;;;10.20;99.90;;;13.24;62.81;95956.41;5032754;28;20261;-51
2023/03/14 00:53:45;;;;;;;2.10;1.00;;;10.20;99.90;;;13.27;62.58;95965.81;5033060;28;20041;-47
2023/03/14 00:56:13;;;;;;;1.27;1.03;;;10.20;99.90;;;13.24;62.68;95955.56;5033071;28;20049;-51
2023/03/14 00:58:42;;;;;;;1.00;0.90;;;10.20;99.90;;;13.22;62.84;95954.97;5041095;28;20103;-48
2023/03/14 01:01:17;;;;;;;1.53;1.10;;;10.10;99.90;;;13.27;62.40;95969.31;5032165;28;20049;-48
2023/03/14 01:03:46;;;;;;;1.07;0.97;;;10.20;99.90;;;13.26;62.55;95986.38;5033686;28;20045;-47
2023/03/14 01:06:20;;;;;;;1.47;1.37;;;10.20;99.90;;;13.26;62.69;95991.72;5032796;28;20057;-50
2023/03/14 01:08:49;;;;;;;1.93;1.13;;;10.20;99.90;;;13.22;62.59;95989.69;5032583;28;20037;-51
2023/03/14 01:11:30;;;;;;;1.40;1.00;;;10.20;99.90;;;13.25;62.90;95997.28;5031915;28;20049;-48
2023/03/14 01:13:59;;;;;;;1.27;0.87;;;10.20;99.90;;;13.26;62.52;95991.72;5033750;28;20040;-48
2023/03/14 01:16:33;;;;;;;1.27;0.90;;;10.30;99.90;;;13.29;62.42;95972.56;5033323;28;20042;-46
2023/03/14 01:19:04;;;;;;;2.03;1.00;;;10.30;99.90;;;13.34;62.23;95978.13;5032138;28;20056;-47
2023/03/14 01:21:34;;;;;;;0.87;0.80;;;10.30;99.90;;;13.33;62.56;95970.31;5033370;28;20049;-49
2023/03/14 01:24:05;;;;;;;1.57;1.10;;;10.30;99.90;;;13.41;62.22;95964.69;5033543;28;20038;-50
2023/03/14 01:26:35;;;;;;;0.83;0.77;;;10.30;99.90;;;13.42;62.16;95962.84;5013758;28;20053;-48
2023/03/14 01:29:04;;;;;;;2.57;1.00;;;10.40;99.90;;;13.44;62.06;95953.56;5031650;28;20045;-51
2023/03/14 01:31:35;;;;;;;2.20;0.90;;;10.40;99.90;;;13.48;61.95;95948.59;5032140;28;20068;-50
2023/03/14 01:34:02;;;;;;;1.00;0.80;;;10.40;99.90;;;13.48;61.85;95936.03;5015506;28;20045;-47
2023/03/14 01:36:30;;;;;;;1.00;0.80;;;10.40;99.90;;;13.50;61.91;95917.13;5032024;28;20508;-50
2023/03/14 01:39:01;;;;;;;1.43;0.70;;;10.50;99.90;;;13.49;61.82;95912.78;5015766;28;20324;-46
2023/03/14 01:41:29;;;;;;;2.93;0.90;;;10.40;99.90;;;13.52;61.70;95891.78;5031438;28;20056;-47
2023/03/14 01:43:58;;;;;;;1.27;0.80;;;10.40;99.90;;;13.52;61.57;95888.31;5031822;28;20068;-48
2023/03/14 01:46:37;;;;;;;2.30;0.90;;;10.40;99.90;;;13.55;61.49;95887.84;5031475;28;20420;-52
2023/03/14 01:49:34;;;;;;;0.80;0.80;;;10.40;99.90;;;13.49;61.43;95884.22;5031807;28;20447;-50
2023/03/14 01:52:35;;;;;;;0.80;0.70;;;10.40;99.90;;;13.47;61.12;95880.13;5032930;28;20657;-49
2023/03/14 01:55:13;;;;;;;0.97;0.80;;;10.40;99.90;;;13.45;60.94;95885.69;5031330;28;20049;-49
2023/03/14 01:57:48;;;;;;;1.07;0.70;;;10.30;99.90;;;13.41;60.95;95873.81;5032344;28;20049;-46
2023/03/14 02:00:20;;;;;;;0.90;0.80;;;10.30;99.90;;;13.41;61.16;95870.31;5015368;28;20052;-49
2023/03/14 02:02:53;;;;;;;;;;;10.30;99.90;;;13.45;61.30;95866.16;5015983;28;20049;-47
2023/03/14 02:05:30;;;;;;;0.90;0.70;;;10.30;99.90;;;13.44;60.60;95878.72;5015815;28;19925;-49
2023/03/14 02:08:05;;;;;;;1.03;0.73;;;10.30;99.90;;;13.35;60.84;95870.16;5031053;28;20045;-48
2023/03/14 02:10:49;;;;;;;0.57;0.57;;;10.30;99.90;;;13.35;60.74;95864.00;5030879;28;20052;-48
2023/03/14 02:13:21;;;;;;;2.20;0.93;;;10.30;99.90;;;13.35;60.69;95866.69;5030850;28;20045;-50
2023/03/14 02:16:00;;;;;;;1.50;0.70;;;10.30;99.90;;;13.38;60.44;95860.91;5016630;28;20045;-48
2023/03/14 02:18:47;;;;;;;1.00;0.83;;;10.20;99.90;;;13.32;60.28;95846.56;5023380;28;20050;-52
2023/03/14 02:21:53;;;;;;;1.27;0.83;;;10.30;99.90;;;13.31;60.49;95846.78;5031447;28;20045;-47
2023/03/14 02:24:56;;;;;;;0.60;0.60;;;10.30;99.90;;;13.32;60.09;95867.94;5016340;28;20056;-49
2023/03/14 02:27:25;;;;;;;0.50;0.50;;;10.20;99.90;;;13.22;59.67;95848.06;5028719;28;20516;-51
2023/03/14 02:30:01;;;;;;;1.00;0.70;;;10.20;99.90;;;13.10;59.73;95837.31;5014442;28;20049;-46
2023/03/14 02:32:33;;;;;;;0.67;0.67;;;10.10;99.90;;;13.15;59.65;95832.13;5014465;28;20421;-47
2023/03/14 02:35:08;;;;;;;2.30;0.90;;;10.10;99.90;;;13.13;59.47;95837.69;5030803;28;20056;-48
2023/03/14 02:37:47;;;;;;;1.23;1.00;;;10.10;99.90;;;13.10;59.46;95831.97;5013891;28;20060;-47
2023/03/14 02:40:15;;;;;;;0.93;0.67;;;10.10;99.90;;;13.06;59.45;95844.94;5014385;28;20045;-51
2023/03/14 02:42:44;;;;;;;0.53;0.53;;;10.10;99.90;;;13.03;59.30;95844.56;5030438;28;20041;-47
2023/03/14 02:45:11;;;;;;;1.33;0.77;;;10.10;99.90;;;13.04;59.27;95843.53;5030936;28;20053;-45
2023/03/14 02:47:52;;;;;;;1.07;0.70;;;10.10;99.90;;;13.05;59.63;95835.31;5030208;28;20041;-50
2023/03/14 02:50:27;;;;;;;1.13;0.80;;;10.10;99.90;;;12.92;59.38;95825.56;5015331;28;20042;-45
2023/03/14 02:52:54;;;;;;;1.27;0.83;;;10.10;99.90;;;12.97;59.20;95831.06;5030124;28;20045;-47
2023/03/14 02:55:25;;;;;;;0.77;0.70;;;10.00;99.90;;;12.98;59.20;95823.88;5030644;28;20057;-46
2023/03/14 02:57:55;;;;;;;9.00;1.20;;;10.00;99.90;;;12.99;58.92;95810.28;5029701;28;20054;-45
2023/03/14 03:00:23;;;;;;;1.23;0.90;;;10.00;99.90;;;12.89;58.97;95810.00;5030576;28;20053;-45
2023/03/14 03:02:51;;;;;;;1.50;1.40;;;10.00;99.90;;;12.95;58.84;95800.25;5029937;28;20049;-47
2023/03/14 03:05:19;;;;;;;1.00;0.90;;;10.00;99.90;;;12.94;59.11;95788.75;5030072;28;20049;-51
2023/03/14 03:07:47;;;;;;;1.73;0.80;;;10.00;99.90;;;12.96;58.84;95785.88;5031142;28;20052;-46
2023/03/14 03:10:15;;;;;;;1.53;0.90;;;10.00;99.90;;;12.98;58.69;95797.16;5030146;28;20045;-47
2023/03/14 03:12:43;;;;;;;3.70;0.83;;;10.00;99.90;;;13.04;58.57;95784.78;5030046;28;20049;-49
2023/03/14 03:15:11;;;;;;;0.80;0.60;;;10.00;99.90;;;13.04;58.42;95782.91;5030340;28;20050;-46
2023/03/14 03:17:39;;;;;;;0.97;0.80;;;10.10;99.90;;;13.07;58.46;95776.31;5030671;28;20045;-45
2023/03/14 03:20:08;;;;;;;2.43;0.80;;;10.10;99.90;;;13.03;58.35;95775.94;5030489;28;20535;-46
2023/03/14 03:22:37;;;;;;;0.67;0.53;;;10.10;99.90;;;13.07;58.26;95757.63;5029439;28;20042;-45
2023/03/14 03:25:07;;;;;;;1.43;0.80;;;10.10;99.90;;;13.07;58.28;95769.13;5029925;28;20509;-45
2023/03/14 03:27:36;;;;;;;1.10;0.70;;;10.10;99.90;;;13.04;57.71;95761.53;5013108;28;20050;-45
2023/03/14 03:30:06;;;;;;;1.20;0.80;;;10.10;99.90;;;13.05;57.93;95757.03;5029590;28;20042;-47
2023/03/14 03:32:35;;;;;;;0.90;0.60;;;10.10;99.90;;;13.06;57.97;95755.97;5029984;28;20056;-45
2023/03/14 03:35:04;;;;;;;1.93;0.90;;;10.10;99.90;;;13.06;57.54;95755.97;5030480;28;20056;-46
2023/03/14 03:37:35;;;;;;;1.20;1.10;;;10.10;99.90;;;13.08;57.44;95756.56;5013207;28;20045;-50
2023/03/14 03:40:06;;;;;;;2.30;1.00;;;10.10;99.90;;;13.12;57.68;95749.75;5029951;28;20052;-47
2023/03/14 03:42:35;;;;;;;3.57;0.90;;;10.20;99.90;;;13.12;57.09;95747.88;5029258;28;20512;-45
2023/03/14 03:45:06;;;;;;;0.70;0.70;;;10.10;99.90;;;13.09;56.78;95743.00;5029903;28;20056;-47
2023/03/14 03:47:38;;;;;;;1.43;1.00;;;10.10;99.90;;;13.08;56.86;95735.19;5029026;28;20046;-46
2023/03/14 03:50:07;;;;;;;0.97;0.83;;;10.10;99.90;;;13.11;56.86;95732.91;5029390;28;20049;-45
2023/03/14 03:52:34;;;;;;;1.30;0.80;;;10.10;99.90;;;13.14;56.61;95740.47;5016412;28;20049;-48
2023/03/14 03:55:02;;;;;;;1.37;0.80;;;10.10;99.90;;;13.12;57.01;95733.72;5035168;28;20042;-47
2023/03/14 03:57:29;;;;;;;4.07;1.13;;;10.10;99.90;;;13.11;56.57;95734.75;5033617;28;20528;-43
2023/03/14 03:59:57;;;;;;;1.13;0.80;;;10.10;99.90;;;13.11;56.41;95740.09;5033864;28;20574;-44
2023/03/14 04:02:25;;;;;;;2.63;0.83;;;10.10;99.90;;;13.02;55.94;95736.09;5033292;28;20069;-44
2023/03/14 04:04:52;;;;;;;2.10;1.50;;;10.00;99.90;;;13.01;55.68;95724.59;5033946;28;20045;-46
2023/03/14 04:07:20;;;;;;;3.10;0.63;;;10.00;99.90;;;13.02;56.14;95720.88;5033668;28;20053;-46
2023/03/14 04:09:48;;;;;;;1.30;0.80;;;10.00;99.90;;;13.04;56.36;95726.81;5035130;28;20025;-44
2023/03/14 04:12:37;;;;;;;1.50;0.90;;;10.00;99.90;;;13.10;55.77;95725.09;5033072;28;20046;-43
2023/03/14 04:15:12;;;;;;;1.37;0.97;;;10.10;99.90;;;13.08;55.79;95730.66;5033714;28;20049;-46
2023/03/14 04:17:45;;;;;;;2.13;0.90;;;10.10;99.90;;;13.11;55.83;95732.91;5032853;28;20053;-44
2023/03/14 04:20:14;;;;;;;3.20;0.97;;;10.10;99.90;;;13.12;55.62;95718.50;5033478;28;20052;-44
2023/03/14 04:22:42;;;;;;;2.07;1.00;;;10.10;99.90;;;13.14;55.52;95728.97;5032810;28;20049;-46
2023/03/14 04:25:11;;;;;;;1.10;0.80;;;10.10;99.90;;;13.13;55.38;95722.00;5033276;28;20056;-46
2023/03/14 04:27:45;;;;;;;2.08;1.05;;;10.10;99.90;;;13.13;55.23;95724.66;5028900;28;20060;-45
2023/03/14 04:30:19;;;;;;;1.83;0.90;;;10.10;99.90;;;13.12;55.51;95723.84;5032977;28;20056;-45
2023/03/14 04:32:52;;;;;;;1.47;0.90;;;10.10;99.90;;;13.12;55.05;95712.34;5033372;28;20042;-44
2023/03/14 04:35:21;;;;;;;1.57;0.80;;;10.10;99.90;;;13.07;54.88;95704.19;5033209;28;20057;-45
2023/03/14 04:37:52;;;;;;;1.87;0.87;;;10.00;99.90;;;13.06;54.85;95722.06;5032655;28;20045;-43
2023/03/14 04:40:21;;;;;;;4.13;1.00;;;10.00;99.90;;;13.05;54.79;95712.44;5033306;28;20532;-43
2023/03/14 04:42:50;;;;;;;3.27;1.00;;;10.00;99.90;;;13.03;55.04;95711.84;5032784;28;20049;-45
2023/03/14 04:45:18;;;;;;;1.63;0.67;;;10.00;99.90;;;13.01;54.79;95700.56;5033124;28;20049;-42
2023/03/14 04:47:46;;;;;;;1.07;0.63;;;10.00;99.90;;;13.00;54.83;95691.72;5031943;28;20050;-43
2023/03/14 04:50:18;;;;;;;2.37;1.20;;;9.90;99.90;;;12.98;54.44;95695.66;5033042;28;20049;-49
2023/03/14 04:52:46;;;;;;;2.63;1.00;;;9.90;99.90;;;12.96;54.75;95681.72;5032194;28;20041;-44
2023/03/14 04:55:14;;;;;;;2.20;0.80;;;9.90;99.90;;;12.96;54.28;95684.38;5033046;28;20049;-45
2023/03/14 04:57:42;;;;;;;2.97;1.00;;;9.90;99.90;;;12.93;54.25;95698.16;5016307;28;20529;-45
2023/03/14 05:00:11;;;;;;;1.93;0.80;;;9.90;99.90;;;12.88;54.26;95693.50;5033971;28;20042;-46
2023/03/14 05:03:01;;;;;;;2.03;0.90;;;9.90;99.90;;;12.90;54.61;95688.75;5024352;28;20429;-44
2023/03/14 05:05:43;;;;;;;5.33;1.47;;;9.90;99.90;;;12.89;53.97;95683.63;5032197;28;20068;-45
2023/03/14 05:08:18;;;;;;;1.63;1.20;;;9.90;99.90;;;12.84;54.34;95665.63;5031886;28;20512;-46
2023/03/14 05:10:54;;;;;;;1.27;0.80;;;9.90;99.90;;;12.82;54.48;95662.38;5033457;28;20060;-48
2023/03/14 05:13:44;;;;;;;2.20;0.93;;;9.90;99.90;;;12.81;53.91;95668.72;5033457;28;20428;-46
2023/03/14 05:16:27;;;;;;;2.13;1.37;;;9.80;99.90;;;12.74;53.97;95660.81;5032422;28;20054;-49
2023/03/14 05:19:02;;;;;;;1.53;0.83;;;9.80;99.90;;;12.74;53.95;95644.78;5032695;28;20053;-45
2023/03/14 05:22:05;;;;;;;1.07;0.80;;;9.80;99.90;;;12.75;53.81;95642.94;5031465;28;20061;-47
2023/03/14 05:24:53;;;;;;;1.37;0.87;;;9.80;99.90;;;12.70;53.92;95643.63;5026289;28;20421;-47
2023/03/14 05:27:27;;;;;;;2.40;1.00;;;9.80;99.90;;;12.66;54.04;95652.28;5034480;28;20065;-46
2023/03/14 05:30:11;;;;;;;2.38;0.70;;;9.80;99.90;;;12.65;54.16;95661.34;5032412;28;20049;-43
2023/03/14 05:32:38;;;;;;;1.67;0.73;;;9.70;99.90;;;12.66;54.09;95657.59;5032957;28;20041;-46
2023/03/14 05:35:38;;;;;;;1.93;1.13;;;9.70;99.90;;;12.71;53.82;95663.09;5028560;28;20052;-45
2023/03/14 05:38:25;;;;;;;2.93;0.80;;;9.70;99.90;;;12.74;53.73;95658.16;5033228;28;20072;-48
2023/03/14 05:41:16;;;;;;;3.20;0.80;;;9.70;99.90;;;12.76;53.90;95649.91;5032108;28;20417;-43
2023/03/14 05:44:00;;;;;;;;;;;9.80;99.90;;;12.88;53.85;95658.78;5032354;28;20042;-45
2023/03/14 05:46:38;;;;;;;1.43;0.73;;;9.80;99.90;;;12.92;53.66;95669.84;5047746;28;20372;-44
2023/03/14 05:49:21;;;;;;;3.23;0.90;;;9.90;99.90;;;12.91;53.72;95662.88;5031865;28;20049;-46
2023/03/14 05:52:09;;;;;;;3.23;1.00;;;9.90;99.90;;;12.96;53.52;95663.03;5018238;28;20386;-44
2023/03/14 05:55:00;;;;;;;5.37;1.47;;;9.90;99.90;;;12.96;53.09;95655.81;5032188;28;20056;-46
2023/03/14 05:57:47;;;;;;;1.07;0.53;;;9.90;99.90;;;12.94;53.57;95636.53;5031462;28;20049;-46
2023/03/14 06:00:27;;;;;;;1.97;0.90;;;9.90;99.90;;;12.95;53.10;95656.88;5016594;28;20517;-45
2023/03/14 06:03:11;;;;;;;1.90;0.73;;;9.90;99.90;;;12.98;53.24;95653.72;5025503;28;20532;-45
2023/03/14 06:05:43;;;;;;;1.83;0.83;;;9.90;99.90;;;13.00;53.36;95654.31;5030943;28;20548;-43
2023/03/14 06:08:12;;;;;;;1.43;0.77;;;10.00;99.90;;;13.05;53.26;95652.84;5030751;28;20045;-46
2023/03/14 06:10:41;;;;;;;1.83;1.03;;;10.00;99.90;;;13.08;53.28;95647.03;5015145;28;20049;-46
2023/03/14 06:13:09;;;;;;;1.70;0.60;;;10.00;99.90;;;13.06;53.29;95647.25;5030576;28;20045;-45
2023/03/14 06:15:36;;;;;;;2.67;0.77;;;10.00;99.90;;;13.02;53.05;95656.78;5014384;28;20045;-46
2023/03/14 06:18:04;;;;;;;1.83;0.60;;;9.90;99.90;;;13.00;53.12;95653.50;5030828;28;20528;-45
2023/03/14 06:20:36;;;;;;;1.10;0.67;;;9.90;99.90;;;12.98;53.35;95648.38;5031392;28;20053;-43
2023/03/14 06:23:03;;;;;;;2.80;0.60;;;9.90;99.90;;;12.97;53.15;95649.44;5030677;28;20532;-45
2023/03/14 06:25:33;;;;;;;3.50;0.63;;;9.90;99.90;;;12.95;53.18;95654.19;5031328;28;20402;-48
2023/03/14 06:28:00;;;;;;;0.90;0.90;;;9.90;99.90;;;12.93;52.88;95658.94;5023403;28;20060;-43
2023/03/14 06:30:28;;;;;;;2.03;0.70;;;9.90;99.90;;;12.96;53.23;95647.00;5030454;28;20041;-47
2023/03/14 06:32:57;;;;;;;2.07;0.40;;;9.90;99.90;;;13.01;53.03;95652.50;5031314;28;20513;-43
2023/03/14 06:35:25;;;;;;;1.20;1.00;;;10.00;99.90;;;13.05;53.28;95653.66;5030724;28;20041;-49
2023/03/14 06:37:53;;;;;;;1.57;0.73;;;10.00;99.90;;;13.09;53.17;95654.84;5030045;28;20045;-44
2023/03/14 06:40:21;;;;;;;2.13;1.43;;;10.00;99.90;;;13.10;53.28;95647.63;5014617;28;20045;-42
2023/03/14 06:43:03;;;;;;;2.87;1.00;;;10.00;99.90;;;13.10;53.06;95639.63;5030299;28;20489;-45
2023/03/14 06:45:33;;;;;;;1.03;0.70;;;10.00;99.90;;;13.08;52.91;95637.16;5030984;28;20421;-45
2023/03/14 06:48:03;;;;;;;2.47;0.50;;;10.00;99.90;;;13.08;52.86;95642.50;5022428;28;20041;-47
2023/03/14 06:50:37;;;;;;;0.80;0.60;;;10.00;99.90;;;13.08;52.73;95637.16;5030139;28;20365;-42
2023/03/14 06:53:04;;;;;;;3.13;0.60;;;10.00;99.90;;;13.08;52.69;95636.34;5030399;28;20053;-42
2023/03/14 06:55:35;;;;;;;1.13;0.80;;;10.00;99.90;;;13.11;52.78;95639.41;5030785;28;20383;-46
2023/03/14 06:58:02;;;;;;;1.13;1.03;;;10.00;99.90;;;13.14;52.89;95644.31;5013774;28;20041;-47
2023/03/14 07:00:39;;;;;;;2.03;0.70;;;10.10;99.90;;;13.23;52.91;95641.31;5030087;28;20056;-46
2023/03/14 07:03:07;;;;;;;1.30;0.80;;;10.10;99.90;;;13.29;52.77;95653.75;5031820;28;20049;-44
2023/03/14 07:05:40;;;;;;;2.53;1.30;;;10.20;99.90;;;13.34;52.51;95656.59;5030445;28;20389;-47
2023/03/14 07:08:08;;;;;;;2.50;0.97;;;10.30;99.90;;;13.39;52.41;95660.19;5029849;28;20046;-45
2023/03/14 07:10:36;;;;;;;0.97;0.60;;;10.40;99.90;;;13.43;52.14;95657.91;5031419;28;20033;-47
2023/03/14 07:13:05;;;;;;;1.00;0.60;;;10.40;99.90;;;13.50;52.22;95657.81;5030299;28;20088;-43
2023/03/14 07:15:37;;;;;;;1.87;0.87;;;10.50;99.90;;;13.57;51.90;95669.19;5029587;28;20052;-46
2023/03/14 07:18:08;;;;;;;1.53;0.67;;;10.60;99.90;;;13.65;52.02;95665.38;5029547;28;20042;-43
2023/03/14 07:20:36;;;;;;;1.73;0.80;;;10.70;99.90;;;13.68;52.06;95657.72;5031078;28;20660;-44
2023/03/14 07:23:05;;;;;;;1.87;0.70;;;10.80;99.90;;;13.81;51.49;95672.75;5029930;28;20049;-46
2023/03/14 07:25:38;;;;;;;2.40;1.80;;;10.80;99.90;;;13.94;51.64;95669.88;5029715;28;20060;-43
2023/03/14 07:28:06;;;;;;;0.80;0.70;;;11.00;99.90;;;13.99;51.23;95667.31;5026498;28;20045;-45
2023/03/14 07:30:34;;;;;;;3.53;0.67;;;11.00;99.90;;;14.11;51.20;95672.72;5029480;28;20049;-44
2023/03/14 07:33:08;;;;;;;2.10;0.90;;;11.10;99.90;;;14.17;50.85;95668.25;5029255;28;20532;-43
2023/03/14 07:35:38;;;;;;;0.57;0.50;;;11.20;99.90;;;14.23;50.88;95677.22;5030326;28;20046;-44
2023/03/14 07:38:06;;;;;;;1.27;1.20;;;11.30;99.90;;;14.28;50.47;95675.47;5028599;28;20041;-44
2023/03/14 07:40:38;;;;;;;1.07;0.60;;;11.30;99.90;;;14.34;50.56;95676.41;5029711;28;20049;-44
2023/03/14 07:43:07;;;;;;;0.57;0.38;;;11.30;99.90;;;14.39;50.07;95673.88;5030084;28;20045;-44
2023/03/14 07:45:46;;;;;;;0.63;0.50;;;11.40;99.90;;;14.44;49.73;95675.84;5029448;28;20056;-49
2023/03/14 07:48:17;;;;;;;3.03;1.17;;;11.50;99.30;;;14.42;50.00;95676.06;5030759;28;20049;-46
2023/03/14 07:50:49;;;;;;;1.43;0.60;;;11.40;99.90;;;14.45;49.71;95672.94;5030931;28;20045;-46
2023/03/14 07:53:17;;;;;;;1.47;1.37;;;11.50;98.30;;;14.51;49.87;95674.66;5030902;28;20049;-47
2023/03/14 07:55:45;;;;;;;0.85;0.52;;;11.60;98.50;;;14.56;49.68;95677.50;5030939;28;20041;-44
2023/03/14 07:58:13;;;;;;;1.15;0.40;;;11.70;97.20;;;14.65;49.34;95677.13;5030658;28;20046;-45
2023/03/14 08:00:40;;;;;;;1.15;0.52;;;11.70;94.20;;;14.66;49.33;95686.81;5030888;28;20041;-45
2023/03/14 08:03:08;;;;;;;0.40;0.40;;;11.70;92.90;;;14.63;49.28;95666.66;5029408;28;20041;-48
2023/03/14 08:05:37;;;;;;;0.57;0.50;;;11.80;89.50;;;14.67;49.05;95677.72;5030847;28;20042;-47
2023/03/14 08:08:05;;;;;;;1.50;0.68;;;11.80;89.10;;;14.69;48.83;95664.91;5012721;28;20520;-45
2023/03/14 08:10:33;;;;;;;0.63;0.50;;;11.80;88.80;;;14.66;48.50;95678.78;5030595;28;20075;-46
2023/03/14 08:13:01;;;;;;;0.50;0.40;;;11.80;79.60;;;14.57;48.12;95679.13;5030710;28;20112;-45
2023/03/14 08:15:30;;;;;;;0.45;0.40;;;11.70;79.00;;;14.49;48.50;95660.69;5029737;28;20041;-42
2023/03/14 08:17:58;;;;;;;0.55;0.38;;;11.70;81.10;;;14.38;48.07;95645.47;5030338;28;20056;-42
2023/03/14 08:20:29;;;;;;;2.65;0.50;;;11.60;78.70;;;14.33;47.88;95656.06;5030909;28;20041;-44
2023/03/14 08:23:00;;;;;;;0.47;0.32;;;11.50;77.60;;;14.29;48.30;95647.69;5030760;28;20053;-45
2023/03/14 08:25:28;;;;;;;0.93;0.53;;;11.40;79.90;;;14.27;47.89;95655.13;5030873;28;20045;-44
2023/03/14 08:27:56;;;;;;;0.40;0.40;;;11.40;77.40;;;14.23;48.01;95653.13;5030319;28;20053;-44
2023/03/14 08:30:24;;;;;;;1.50;0.50;;;11.40;78.10;;;14.17;48.11;95650.38;5030822;28;20041;-44
2023/03/14 08:32:52;;;;;;;0.40;0.37;;;11.50;77.20;;;14.16;48.48;95651.41;5030378;28;20041;-46
2023/03/14 08:35:21;;;;;;;1.37;0.70;;;11.50;79.00;;;14.15;48.25;95639.09;5030717;28;20037;-46
2023/03/14 08:37:48;;;;;;;2.35;0.70;;;11.50;77.60;;;14.13;47.79;95638.50;5032082;28;20493;-41
2023/03/14 08:40:17;;;;;;;1.48;0.55;;;11.60;75.80;;;14.25;47.78;95645.69;5030089;28;20529;-44
2023/03/14 08:42:45;;;;;;;0.30;0.30;;;11.70;74.90;;;14.33;47.78;95656.06;5030349;28;20428;-43
2023/03/14 08:45:16;;;;;;;0.90;0.53;;;11.80;75.10;;;14.46;47.38;95655.00;5032331;28;20045;-44
2023/03/14 08:47:44;;;;;;;0.30;0.30;;;12.00;73.50;;;14.71;47.58;95654.75;5031475;28;20042;-42
2023/03/14 08:50:13;;;;;;;1.02;0.55;;;12.10;75.60;;;14.79;47.20;95654.41;5028963;28;20044;-42
2023/03/14 08:52:43;;;;;;;0.90;0.50;;;12.30;73.70;;;14.83;46.78;95660.09;5033908;28;20052;-47
2023/03/14 08:55:11;;;;;;;0.75;0.50;;;12.30;73.60;;;14.88;46.53;95665.56;5034441;28;20041;-46
2023/03/14 08:57:39;;;;;;;1.30;0.68;;;12.30;72.70;;;14.92;46.79;95667.53;5032376;28;20048;-47
2023/03/14 09:00:14;;;;;;;0.80;0.40;;;12.30;74.20;;;15.11;47.13;95678.09;5034192;28;20417;-45
2023/03/14 09:02:42;;;;;;;1.13;0.40;;;12.40;75.00;;;15.12;46.91;95680.53;5033832;28;20049;-50
2023/03/14 09:05:11;;;;;;;0.85;0.43;;;12.40;74.90;;;15.10;46.37;95684.50;5033826;28;20524;-50
2023/03/14 09:07:39;;;;;;;1.42;0.50;;;12.40;73.40;;;14.98;46.31;95695.25;5032269;28;20041;-48
2023/03/14 09:10:08;;;;;;;1.40;0.80;;;12.20;72.20;;;14.94;46.54;95713.66;5033894;28;20057;-50
2023/03/14 09:12:36;;;;;;;0.82;0.60;;;12.10;73.40;;;14.91;47.01;95726.72;5032137;28;20041;-50
2023/03/14 09:15:04;;;;;;;0.50;0.50;;;12.10;75.70;;;14.86;47.23;95715.91;5031315;28;20045;-47
2023/03/14 09:17:32;;;;;;;2.50;1.58;;;12.00;75.90;;;14.84;47.36;95726.03;5017414;28;20041;-50
2023/03/14 09:19:59;;;;;;;0.90;0.50;;;11.90;77.00;;;14.84;47.18;95726.03;5026997;28;20057;-49
2023/03/14 09:22:27;;;;;;;0.63;0.45;;;11.90;76.50;;;14.75;47.22;95723.72;5027889;28;20042;-48
2023/03/14 09:24:54;;;;;;;0.60;0.60;;;11.80;76.20;;;14.73;47.78;95733.84;5028292;28;20052;-50
2023/03/14 09:27:22;;;;;;;1.50;0.50;;;11.80;77.50;;;14.80;47.47;95733.72;5041826;28;20049;-49
2023/03/14 09:29:49;;;;;;;1.23;0.60;;;11.80;77.10;;;14.84;47.68;95744.78;5028415;28;20386;-48
2023/03/14 09:32:17;;;;;;;0.75;0.50;;;11.80;77.40;;;14.87;47.94;95736.25;5027473;28;20046;-47
2023/03/14 09:34:44;;;;;;;0.82;0.63;;;11.90;77.60;;;14.89;47.34;95743.03;5027302;28;20049;-49
2023/03/14 09:37:12;;;;;;;2.25;0.50;;;11.90;77.10;;;14.85;47.22;95741.03;5027498;28;20045;-47
2023/03/14 09:39:39;;;;;;;6.43;1.08;;;11.80;76.20;;;14.82;47.18;95761.09;5026240;28;20083;-47
2023/03/14 09:42:14;;;;;;;0.80;0.57;;;11.90;75.30;;;14.77;47.16;95755.59;5027916;28;20041;-52
2023/03/14 09:45:07;;;;;;;0.38;0.30;;;11.80;76.30;;;14.76;47.21;95746.75;5042780;28;20049;-47
2023/03/14 09:47:35;;;;;;;0.40;0.40;;;11.80;74.70;;;14.69;47.18;95764.81;5027288;28;20053;-46
2023/03/14 09:50:15;;;;;;;1.80;0.60;;;11.70;75.50;;;14.76;47.17;95754.78;5028273;28;20046;-50
2023/03/14 09:52:49;;;;;;;0.88;0.60;;;11.80;76.10;;;14.86;47.33;95754.19;5025650;28;20057;-48
2023/03/14 09:55:21;;;;;;;9.55;1.98;;;11.90;76.70;;;14.94;47.69;95755.72;5024183;28;20409;-52
2023/03/14 09:57:54;;;;;;;0.43;0.43;;;11.90;76.80;;;15.00;47.63;95740.56;5042164;28;20497;-50
2023/03/14 10:00:29;;;;;;;0.80;0.52;;;12.10;76.90;;;15.11;47.54;95745.09;5028313;28;20056;-50
2023/03/14 10:03:19;;;;;;;0.85;0.85;;;12.10;76.40;;;15.03;47.65;95734.75;5026669;28;20053;-49
2023/03/14 10:05:47;;;;;;;2.20;1.15;;;12.20;76.60;;;15.05;47.33;95754.09;5038707;28;20045;-48
2023/03/14 10:08:14;;;;;;;0.43;0.35;;;12.10;75.60;;;14.98;47.53;95719.34;5030979;28;20041;-50
2023/03/14 10:10:42;;;;;;;0.30;0.20;;;12.00;76.10;;;15.03;47.72;95721.34;5032725;28;20049;-53
2023/03/14 10:13:24;;;;;;;1.50;0.43;;;12.10;77.10;;;15.02;47.68;95728.56;5032170;28;20041;-50
2023/03/14 10:15:54;;;;;;;0.63;0.43;;;12.10;76.20;;;15.07;47.78;95728.66;5032378;28;20041;-49
2023/03/14 10:18:23;;;;;;;0.73;0.68;;;12.20;76.10;;;15.21;47.14;95729.22;5031913;28;20481;-46
2023/03/14 10:21:20;;;;;;;2.15;0.40;;;12.40;75.10;;;15.26;47.06;95710.56;5032409;28;20437;-49
2023/03/14 10:23:48;;;;;;;0.30;0.30;;;12.50;73.10;;;15.31;46.63;95729.41;5032365;28;20413;-50
2023/03/14 10:26:26;;;;;;;1.65;0.43;;;12.50;72.60;;;15.22;46.01;95730.03;5032736;28;20402;-48
2023/03/14 10:29:12;;;;;;;0.50;0.40;;;12.50;71.00;;;15.21;46.41;95731.09;5030925;28;20041;-49
2023/03/14 10:32:18;;;;;;;0.30;0.30;;;12.40;72.50;;;15.16;46.91;95739.84;5031100;28;20048;-45
2023/03/14 10:35:15;;;;;;;0.52;0.50;;;12.40;73.00;;;15.18;46.68;95735.06;5025087;28;20067;-51
2023/03/14 10:38:04;;;;;;;1.40;0.50;;;12.40;72.70;;;15.23;46.41;95742.38;5027845;28;20046;-50
2023/03/14 10:40:37;;;;;;;0.40;0.40;;;12.40;72.80;;;15.19;46.53;95741.22;5031028;28;20049;-46
2023/03/14 10:43:13;;;;;;;;;;;12.30;73.50;;;15.24;46.64;95762.78;5032231;28;20045;-48